CheckWX is a tool to help pilots better visualize weather data.  It is not intended as a substitute for an official pre-flight weather briefing.

01:35:54 UTC

KBKS METAR
Brooks County Airport
Falfurrias, Texas, USA
Current

21 mins ago

KBKS 240115Z AUTO 36004KT 10SM CLR 19/06 A2999 RMK AO1 T01920055
Observed
Feb-24 @ 01:15 UTC
Wind
  • 360° at 4 KTS
Visibility
10 SM
Flight Rules
VFR
Cloud Levels
  • Clear skies
Temperature
19°C / 66°F
Dewpoint
C / 43°F
Humidity
43%
Altimeter
29.99" Hg
Pressure
1015.62 hPa
Previous

41 mins ago

KBKS 240055Z AUTO 01003KT 10SM CLR 20/06 A2999 RMK AO1 T02040055
Observed
Feb-24 @ 00:55 UTC
Wind
  • 010° at 3 KTS
Visibility
10 SM
Flight Rules
VFR
Cloud Levels
  • Clear skies
Temperature
20°C / 68°F
Dewpoint
C / 43°F
Humidity
40%
Altimeter
29.99" Hg
Pressure
1015.62 hPa
Previous

1 hour ago

KBKS 240035Z AUTO 36004KT 10SM CLR 21/06 A2998 RMK AO1 T02090060
Observed
Feb-24 @ 00:35 UTC
Wind
  • 360° at 4 KTS
Visibility
10 SM
Flight Rules
VFR
Cloud Levels
  • Clear skies
Temperature
21°C / 70°F
Dewpoint
C / 43°F
Humidity
38%
Altimeter
29.98" Hg
Pressure
1015.22 hPa